sensor_id;sensor_type;location;lat;lon;timestamp;temperature;humidity
728;DHT22;347;48.780;9.158;2023-07-20T00:01:46;21.70;13.10
728;DHT22;347;48.780;9.158;2023-07-20T00:04:13;21.70;12.50
728;DHT22;347;48.780;9.158;2023-07-20T00:06:39;21.70;12.30
728;DHT22;347;48.780;9.158;2023-07-20T00:09:06;21.70;12.20
728;DHT22;347;48.780;9.158;2023-07-20T00:11:31;21.70;12.00
728;DHT22;347;48.780;9.158;2023-07-20T00:13:58;21.60;11.60
728;DHT22;347;48.780;9.158;2023-07-20T00:16:23;21.60;11.00
728;DHT22;347;48.780;9.158;2023-07-20T00:18:49;21.50;11.10
728;DHT22;347;48.780;9.158;2023-07-20T00:21:14;21.40;10.90
728;DHT22;347;48.780;9.158;2023-07-20T00:23:40;21.30;11.00
728;DHT22;347;48.780;9.158;2023-07-20T00:26:05;21.30;11.30
728;DHT22;347;48.780;9.158;2023-07-20T00:28:31;21.30;10.80
728;DHT22;347;48.780;9.158;2023-07-20T00:30:59;21.20;10.80
728;DHT22;347;48.780;9.158;2023-07-20T00:33:25;21.20;10.80
728;DHT22;347;48.780;9.158;2023-07-20T00:35:51;21.30;10.90
728;DHT22;347;48.780;9.158;2023-07-20T00:38:16;21.30;10.80
728;DHT22;347;48.780;9.158;2023-07-20T00:40:42;21.20;10.80
728;DHT22;347;48.780;9.158;2023-07-20T00:43:08;21.20;10.90
728;DHT22;347;48.780;9.158;2023-07-20T00:45:34;21.20;11.00
728;DHT22;347;48.780;9.158;2023-07-20T00:48:01;21.20;11.50
728;DHT22;347;48.780;9.158;2023-07-20T00:50:28;21.40;10.90
728;DHT22;347;48.780;9.158;2023-07-20T00:52:55;21.40;10.50
728;DHT22;347;48.780;9.158;2023-07-20T00:55:21;21.50;11.10
728;DHT22;347;48.780;9.158;2023-07-20T00:57:47;21.50;10.50
728;DHT22;347;48.780;9.158;2023-07-20T01:00:14;21.30;10.80
728;DHT22;347;48.780;9.158;2023-07-20T01:02:40;21.20;11.10
728;DHT22;347;48.780;9.158;2023-07-20T01:05:06;21.10;11.40
728;DHT22;347;48.780;9.158;2023-07-20T01:07:52;21.00;11.50
728;DHT22;347;48.780;9.158;2023-07-20T01:10:54;21.10;11.50
728;DHT22;347;48.780;9.158;2023-07-20T01:13:18;21.10;11.40
728;DHT22;347;48.780;9.158;2023-07-20T01:15:56;21.10;11.50
728;DHT22;347;48.780;9.158;2023-07-20T01:18:22;21.10;11.50
728;DHT22;347;48.780;9.158;2023-07-20T01:20:48;21.10;11.60
728;DHT22;347;48.780;9.158;2023-07-20T01:29:24;20.90;12.00
728;DHT22;347;48.780;9.158;2023-07-20T01:31:54;20.90;12.20
728;DHT22;347;48.780;9.158;2023-07-20T01:34:23;20.70;12.60
728;DHT22;347;48.780;9.158;2023-07-20T01:36:50;20.60;12.90
728;DHT22;347;48.780;9.158;2023-07-20T01:39:19;20.50;13.00
728;DHT22;347;48.780;9.158;2023-07-20T01:41:45;20.60;14.00
728;DHT22;347;48.780;9.158;2023-07-20T01:44:12;20.60;13.30
728;DHT22;347;48.780;9.158;2023-07-20T01:46:37;20.50;13.40
728;DHT22;347;48.780;9.158;2023-07-20T01:49:03;20.50;13.40
728;DHT22;347;48.780;9.158;2023-07-20T01:51:29;20.50;13.40
728;DHT22;347;48.780;9.158;2023-07-20T01:53:54;20.50;13.40
728;DHT22;347;48.780;9.158;2023-07-20T01:56:20;20.50;13.40
728;DHT22;347;48.780;9.158;2023-07-20T01:58:46;20.50;13.80
728;DHT22;347;48.780;9.158;2023-07-20T02:01:11;20.50;13.60
728;DHT22;347;48.780;9.158;2023-07-20T02:03:37;20.40;13.80
728;DHT22;347;48.780;9.158;2023-07-20T02:06:03;20.30;14.00
728;DHT22;347;48.780;9.158;2023-07-20T02:08:28;20.30;14.00
728;DHT22;347;48.780;9.158;2023-07-20T02:10:54;20.30;14.30
728;DHT22;347;48.780;9.158;2023-07-20T02:13:19;20.20;14.40
728;DHT22;347;48.780;9.158;2023-07-20T02:15:45;20.20;14.50
728;DHT22;347;48.780;9.158;2023-07-20T02:18:12;20.20;14.60
728;DHT22;347;48.780;9.158;2023-07-20T02:20:38;20.10;14.50
728;DHT22;347;48.780;9.158;2023-07-20T02:23:05;20.10;14.60
728;DHT22;347;48.780;9.158;2023-07-20T02:25:31;20.10;14.90
728;DHT22;347;48.780;9.158;2023-07-20T02:27:57;20.10;15.00
728;DHT22;347;48.780;9.158;2023-07-20T02:30:23;20.00;15.00
728;DHT22;347;48.780;9.158;2023-07-20T02:32:49;20.00;15.00
728;DHT22;347;48.780;9.158;2023-07-20T02:35:16;20.00;15.10
728;DHT22;347;48.780;9.158;2023-07-20T02:37:41;19.90;15.20
728;DHT22;347;48.780;9.158;2023-07-20T02:40:08;19.80;15.30
728;DHT22;347;48.780;9.158;2023-07-20T02:42:34;19.80;15.50
728;DHT22;347;48.780;9.158;2023-07-20T02:45:02;19.80;15.80
728;DHT22;347;48.780;9.158;2023-07-20T02:47:29;19.70;15.80
728;DHT22;347;48.780;9.158;2023-07-20T02:49:54;19.60;15.90
728;DHT22;347;48.780;9.158;2023-07-20T02:52:20;19.60;16.10
728;DHT22;347;48.780;9.158;2023-07-20T02:54:45;19.60;16.30
728;DHT22;347;48.780;9.158;2023-07-20T02:57:11;19.50;16.30
728;DHT22;347;48.780;9.158;2023-07-20T02:59:37;19.50;16.50
728;DHT22;347;48.780;9.158;2023-07-20T03:02:02;19.50;16.50
728;DHT22;347;48.780;9.158;2023-07-20T03:04:28;19.50;16.80
728;DHT22;347;48.780;9.158;2023-07-20T03:06:54;19.40;17.00
728;DHT22;347;48.780;9.158;2023-07-20T03:09:19;19.40;17.00
728;DHT22;347;48.780;9.158;2023-07-20T03:11:45;19.40;17.00
728;DHT22;347;48.780;9.158;2023-07-20T03:14:11;19.40;17.00
728;DHT22;347;48.780;9.158;2023-07-20T03:16:37;19.40;17.00
728;DHT22;347;48.780;9.158;2023-07-20T03:19:02;19.40;16.90
728;DHT22;347;48.780;9.158;2023-07-20T03:21:29;19.40;17.00
728;DHT22;347;48.780;9.158;2023-07-20T03:23:55;19.40;17.00
728;DHT22;347;48.780;9.158;2023-07-20T03:26:21;19.50;17.00
728;DHT22;347;48.780;9.158;2023-07-20T03:28:46;19.50;17.00
728;DHT22;347;48.780;9.158;2023-07-20T03:31:12;19.40;17.00
728;DHT22;347;48.780;9.158;2023-07-20T03:33:38;19.40;17.00
728;DHT22;347;48.780;9.158;2023-07-20T03:36:04;19.40;17.20
728;DHT22;347;48.780;9.158;2023-07-20T03:38:30;19.40;17.20
728;DHT22;347;48.780;9.158;2023-07-20T03:41:00;19.30;17.10
728;DHT22;347;48.780;9.158;2023-07-20T03:43:27;19.30;17.20
728;DHT22;347;48.780;9.158;2023-07-20T03:45:54;19.30;17.70
728;DHT22;347;48.780;9.158;2023-07-20T03:48:21;19.30;17.60
728;DHT22;347;48.780;9.158;2023-07-20T03:50:49;19.20;17.50
728;DHT22;347;48.780;9.158;2023-07-20T03:53:16;19.20;17.80
728;DHT22;347;48.780;9.158;2023-07-20T03:55:46;19.20;17.70
728;DHT22;347;48.780;9.158;2023-07-20T03:58:12;19.20;17.70
728;DHT22;347;48.780;9.158;2023-07-20T04:00:39;19.30;17.90
728;DHT22;347;48.780;9.158;2023-07-20T04:03:05;19.20;17.90
728;DHT22;347;48.780;9.158;2023-07-20T04:05:31;19.20;17.90
728;DHT22;347;48.780;9.158;2023-07-20T04:07:56;19.20;17.90
728;DHT22;347;48.780;9.158;2023-07-20T04:10:22;19.10;18.00
728;DHT22;347;48.780;9.158;2023-07-20T04:12:48;19.10;18.30
728;DHT22;347;48.780;9.158;2023-07-20T04:15:14;19.10;18.60
728;DHT22;347;48.780;9.158;2023-07-20T04:17:40;19.00;18.70
728;DHT22;347;48.780;9.158;2023-07-20T04:20:07;19.00;18.80
728;DHT22;347;48.780;9.158;2023-07-20T04:22:33;19.00;18.90
728;DHT22;347;48.780;9.158;2023-07-20T04:24:58;19.00;18.70
728;DHT22;347;48.780;9.158;2023-07-20T04:27:24;19.10;18.80
728;DHT22;347;48.780;9.158;2023-07-20T04:29:50;19.00;18.70
728;DHT22;347;48.780;9.158;2023-07-20T04:32:16;19.10;18.70
728;DHT22;347;48.780;9.158;2023-07-20T04:34:43;19.10;18.70
728;DHT22;347;48.780;9.158;2023-07-20T04:37:08;19.10;18.70
728;DHT22;347;48.780;9.158;2023-07-20T04:39:34;19.20;19.10
728;DHT22;347;48.780;9.158;2023-07-20T04:41:59;19.20;18.60
728;DHT22;347;48.780;9.158;2023-07-20T04:44:25;19.20;18.60
728;DHT22;347;48.780;9.158;2023-07-20T04:46:51;19.30;18.70
728;DHT22;347;48.780;9.158;2023-07-20T04:49:16;19.30;18.40
728;DHT22;347;48.780;9.158;2023-07-20T04:51:42;19.30;18.60
728;DHT22;347;48.780;9.158;2023-07-20T04:54:08;19.40;18.60
728;DHT22;347;48.780;9.158;2023-07-20T04:56:33;19.40;18.50
728;DHT22;347;48.780;9.158;2023-07-20T04:58:59;19.40;18.40
728;DHT22;347;48.780;9.158;2023-07-20T05:01:25;19.40;18.40
728;DHT22;347;48.780;9.158;2023-07-20T05:03:52;19.40;18.30
728;DHT22;347;48.780;9.158;2023-07-20T05:06:18;19.50;18.20
728;DHT22;347;48.780;9.158;2023-07-20T05:08:44;19.50;18.20
728;DHT22;347;48.780;9.158;2023-07-20T05:11:10;19.60;17.90
728;DHT22;347;48.780;9.158;2023-07-20T05:13:36;19.70;18.00
728;DHT22;347;48.780;9.158;2023-07-20T05:16:02;19.70;17.70
728;DHT22;347;48.780;9.158;2023-07-20T05:18:28;19.70;17.80
728;DHT22;347;48.780;9.158;2023-07-20T05:20:53;19.70;17.80
728;DHT22;347;48.780;9.158;2023-07-20T05:23:20;19.70;17.90
728;DHT22;347;48.780;9.158;2023-07-20T05:25:47;19.80;17.90
728;DHT22;347;48.780;9.158;2023-07-20T05:28:12;19.90;17.90
728;DHT22;347;48.780;9.158;2023-07-20T05:30:39;20.00;17.40
728;DHT22;347;48.780;9.158;2023-07-20T05:33:05;20.10;17.50
728;DHT22;347;48.780;9.158;2023-07-20T05:35:30;20.10;17.50
728;DHT22;347;48.780;9.158;2023-07-20T05:37:56;20.10;17.50
728;DHT22;347;48.780;9.158;2023-07-20T05:40:22;20.10;17.50
728;DHT22;347;48.780;9.158;2023-07-20T05:42:48;20.20;17.50
728;DHT22;347;48.780;9.158;2023-07-20T05:45:17;20.20;17.50
728;DHT22;347;48.780;9.158;2023-07-20T05:47:43;20.30;17.70
728;DHT22;347;48.780;9.158;2023-07-20T05:50:10;20.30;17.50
728;DHT22;347;48.780;9.158;2023-07-20T05:52:36;20.20;17.50
728;DHT22;347;48.780;9.158;2023-07-20T05:55:04;20.30;17.50
728;DHT22;347;48.780;9.158;2023-07-20T05:57:29;20.30;17.50
728;DHT22;347;48.780;9.158;2023-07-20T05:59:55;20.40;17.60
728;DHT22;347;48.780;9.158;2023-07-20T06:02:21;20.40;17.40
728;DHT22;347;48.780;9.158;2023-07-20T06:04:47;20.40;17.20
728;DHT22;347;48.780;9.158;2023-07-20T06:07:12;20.50;17.30
728;DHT22;347;48.780;9.158;2023-07-20T06:09:38;20.50;17.40
728;DHT22;347;48.780;9.158;2023-07-20T06:12:04;20.50;17.40
728;DHT22;347;48.780;9.158;2023-07-20T06:14:30;20.50;17.50
728;DHT22;347;48.780;9.158;2023-07-20T06:16:56;20.50;17.60
728;DHT22;347;48.780;9.158;2023-07-20T06:19:21;20.50;17.70
728;DHT22;347;48.780;9.158;2023-07-20T06:21:48;20.50;17.70
728;DHT22;347;48.780;9.158;2023-07-20T06:24:15;20.50;17.60
728;DHT22;347;48.780;9.158;2023-07-20T06:26:41;20.60;17.80
728;DHT22;347;48.780;9.158;2023-07-20T06:29:07;20.60;17.80
728;DHT22;347;48.780;9.158;2023-07-20T06:31:34;20.50;18.30
728;DHT22;347;48.780;9.158;2023-07-20T06:33:59;20.50;18.10
728;DHT22;347;48.780;9.158;2023-07-20T06:36:26;20.60;18.40
728;DHT22;347;48.780;9.158;2023-07-20T06:38:52;20.60;17.80
728;DHT22;347;48.780;9.158;2023-07-20T06:41:18;20.50;17.90
728;DHT22;347;48.780;9.158;2023-07-20T06:43:44;20.40;18.30
728;DHT22;347;48.780;9.158;2023-07-20T06:46:10;20.50;18.40
728;DHT22;347;48.780;9.158;2023-07-20T06:48:36;20.60;18.20
728;DHT22;347;48.780;9.158;2023-07-20T06:51:01;20.70;18.10
728;DHT22;347;48.780;9.158;2023-07-20T06:53:28;20.90;18.00
728;DHT22;347;48.780;9.158;2023-07-20T06:55:54;20.80;17.90
728;DHT22;347;48.780;9.158;2023-07-20T06:58:22;20.90;17.80
728;DHT22;347;48.780;9.158;2023-07-20T07:00:48;20.90;17.60
728;DHT22;347;48.780;9.158;2023-07-20T07:03:14;20.90;17.60
728;DHT22;347;48.780;9.158;2023-07-20T07:05:40;21.10;17.30
728;DHT22;347;48.780;9.158;2023-07-20T07:08:05;21.10;17.20
728;DHT22;347;48.780;9.158;2023-07-20T07:10:32;21.20;17.30
728;DHT22;347;48.780;9.158;2023-07-20T07:12:58;21.20;17.10
728;DHT22;347;48.780;9.158;2023-07-20T07:15:23;21.30;16.70
728;DHT22;347;48.780;9.158;2023-07-20T07:17:49;21.20;17.10
728;DHT22;347;48.780;9.158;2023-07-20T07:20:16;21.20;16.70
728;DHT22;347;48.780;9.158;2023-07-20T07:22:41;21.20;17.10
728;DHT22;347;48.780;9.158;2023-07-20T07:25:09;21.20;17.10
728;DHT22;347;48.780;9.158;2023-07-20T07:27:35;21.20;17.00
728;DHT22;347;48.780;9.158;2023-07-20T07:30:02;21.20;16.80
728;DHT22;347;48.780;9.158;2023-07-20T07:32:28;21.30;16.50
728;DHT22;347;48.780;9.158;2023-07-20T07:34:53;21.20;16.80
728;DHT22;347;48.780;9.158;2023-07-20T07:37:19;21.30;16.60
728;DHT22;347;48.780;9.158;2023-07-20T07:39:45;21.50;16.20
728;DHT22;347;48.780;9.158;2023-07-20T07:42:11;21.70;16.10
728;DHT22;347;48.780;9.158;2023-07-20T07:44:38;21.70;15.40
728;DHT22;347;48.780;9.158;2023-07-20T07:47:03;21.70;15.50
728;DHT22;347;48.780;9.158;2023-07-20T07:49:30;21.70;15.50
728;DHT22;347;48.780;9.158;2023-07-20T07:51:56;21.80;15.20
728;DHT22;347;48.780;9.158;2023-07-20T07:54:22;21.90;14.90
728;DHT22;347;48.780;9.158;2023-07-20T07:56:48;21.90;14.80
728;DHT22;347;48.780;9.158;2023-07-20T07:59:16;21.80;15.10
728;DHT22;347;48.780;9.158;2023-07-20T08:01:42;21.90;14.60
728;DHT22;347;48.780;9.158;2023-07-20T08:04:08;22.00;14.70
728;DHT22;347;48.780;9.158;2023-07-20T08:06:34;22.10;14.60
728;DHT22;347;48.780;9.158;2023-07-20T08:08:59;22.20;13.30
728;DHT22;347;48.780;9.158;2023-07-20T08:11:25;22.20;13.60
728;DHT22;347;48.780;9.158;2023-07-20T08:13:51;22.30;12.80
728;DHT22;347;48.780;9.158;2023-07-20T08:16:17;22.20;13.40
728;DHT22;347;48.780;9.158;2023-07-20T08:18:43;22.20;13.40
728;DHT22;347;48.780;9.158;2023-07-20T08:21:09;22.20;13.90
728;DHT22;347;48.780;9.158;2023-07-20T08:23:35;22.30;12.40
728;DHT22;347;48.780;9.158;2023-07-20T08:26:00;22.40;12.90
728;DHT22;347;48.780;9.158;2023-07-20T08:28:26;22.50;12.80
728;DHT22;347;48.780;9.158;2023-07-20T08:30:52;22.60;12.80
728;DHT22;347;48.780;9.158;2023-07-20T08:33:19;22.60;12.50
728;DHT22;347;48.780;9.158;2023-07-20T08:35:45;22.60;12.90
728;DHT22;347;48.780;9.158;2023-07-20T08:38:12;22.60;13.10
728;DHT22;347;48.780;9.158;2023-07-20T08:40:45;22.50;13.30
728;DHT22;347;48.780;9.158;2023-07-20T08:43:12;22.50;13.10
728;DHT22;347;48.780;9.158;2023-07-20T08:45:40;22.40;12.70
728;DHT22;347;48.780;9.158;2023-07-20T08:48:07;22.50;11.60
728;DHT22;347;48.780;9.158;2023-07-20T08:50:34;22.60;11.70
728;DHT22;347;48.780;9.158;2023-07-20T08:53:01;22.70;11.90
728;DHT22;347;48.780;9.158;2023-07-20T08:55:28;22.80;11.70
728;DHT22;347;48.780;9.158;2023-07-20T08:57:55;22.90;11.00
728;DHT22;347;48.780;9.158;2023-07-20T09:00:22;22.90;10.60
728;DHT22;347;48.780;9.158;2023-07-20T09:02:52;23.00;10.30
728;DHT22;347;48.780;9.158;2023-07-20T09:05:18;23.10;10.80
728;DHT22;347;48.780;9.158;2023-07-20T09:07:44;23.10;10.10
728;DHT22;347;48.780;9.158;2023-07-20T09:10:10;23.10;10.20
728;DHT22;347;48.780;9.158;2023-07-20T09:15:05;23.00;10.30
728;DHT22;347;48.780;9.158;2023-07-20T09:17:30;22.90;10.50
728;DHT22;347;48.780;9.158;2023-07-20T09:19:56;22.80;10.60
728;DHT22;347;48.780;9.158;2023-07-20T09:22:22;22.80;10.90
728;DHT22;347;48.780;9.158;2023-07-20T09:24:47;22.90;10.80
728;DHT22;347;48.780;9.158;2023-07-20T09:27:13;23.00;9.60
728;DHT22;347;48.780;9.158;2023-07-20T09:29:48;23.00;9.70
728;DHT22;347;48.780;9.158;2023-07-20T09:32:18;23.00;9.60
728;DHT22;347;48.780;9.158;2023-07-20T09:34:44;22.90;9.70
728;DHT22;347;48.780;9.158;2023-07-20T09:37:10;22.90;10.50
728;DHT22;347;48.780;9.158;2023-07-20T09:39:45;22.90;10.60
728;DHT22;347;48.780;9.158;2023-07-20T09:42:15;22.90;10.00
728;DHT22;347;48.780;9.158;2023-07-20T09:44:43;22.90;9.30
728;DHT22;347;48.780;9.158;2023-07-20T09:47:09;22.90;9.10
728;DHT22;347;48.780;9.158;2023-07-20T09:49:42;23.00;9.00
728;DHT22;347;48.780;9.158;2023-07-20T09:52:11;23.10;9.40
728;DHT22;347;48.780;9.158;2023-07-20T09:54:39;23.20;8.30
728;DHT22;347;48.780;9.158;2023-07-20T09:57:07;23.30;7.40
728;DHT22;347;48.780;9.158;2023-07-20T09:59:34;23.40;7.50
728;DHT22;347;48.780;9.158;2023-07-20T10:02:02;23.50;7.40
728;DHT22;347;48.780;9.158;2023-07-20T10:04:30;23.70;8.60
728;DHT22;347;48.780;9.158;2023-07-20T10:06:58;23.70;7.50
728;DHT22;347;48.780;9.158;2023-07-20T10:09:26;23.80;7.10
728;DHT22;347;48.780;9.158;2023-07-20T10:11:53;24.00;6.90
728;DHT22;347;48.780;9.158;2023-07-20T10:14:22;24.10;7.00
728;DHT22;347;48.780;9.158;2023-07-20T10:16:55;24.20;6.80
728;DHT22;347;48.780;9.158;2023-07-20T10:19:36;24.30;5.90
728;DHT22;347;48.780;9.158;2023-07-20T10:22:14;24.20;5.50
728;DHT22;347;48.780;9.158;2023-07-20T10:24:44;24.10;5.10
728;DHT22;347;48.780;9.158;2023-07-20T10:27:10;24.00;5.60
728;DHT22;347;48.780;9.158;2023-07-20T10:29:37;23.80;5.50
728;DHT22;347;48.780;9.158;2023-07-20T10:32:03;23.80;6.80
728;DHT22;347;48.780;9.158;2023-07-20T10:34:29;23.90;5.40
728;DHT22;347;48.780;9.158;2023-07-20T10:36:55;24.00;5.40
728;DHT22;347;48.780;9.158;2023-07-20T10:41:50;24.50;4.90
728;DHT22;347;48.780;9.158;2023-07-20T10:44:19;24.60;4.40
728;DHT22;347;48.780;9.158;2023-07-20T10:46:45;24.80;4.20
728;DHT22;347;48.780;9.158;2023-07-20T10:49:14;25.00;5.00
728;DHT22;347;48.780;9.158;2023-07-20T10:56:43;24.90;3.90
728;DHT22;347;48.780;9.158;2023-07-20T10:59:20;24.80;3.30
728;DHT22;347;48.780;9.158;2023-07-20T11:01:47;24.80;3.00
728;DHT22;347;48.780;9.158;2023-07-20T11:04:14;24.80;2.90
728;DHT22;347;48.780;9.158;2023-07-20T11:06:44;24.80;3.20
728;DHT22;347;48.780;9.158;2023-07-20T11:09:14;24.80;2.80
728;DHT22;347;48.780;9.158;2023-07-20T11:11:47;24.80;2.80
728;DHT22;347;48.780;9.158;2023-07-20T11:14:24;24.70;2.80
728;DHT22;347;48.780;9.158;2023-07-20T11:16:51;24.60;2.70
728;DHT22;347;48.780;9.158;2023-07-20T11:19:22;24.60;2.70
728;DHT22;347;48.780;9.158;2023-07-20T11:21:57;24.70;2.70
728;DHT22;347;48.780;9.158;2023-07-20T11:24:24;24.80;2.70
728;DHT22;347;48.780;9.158;2023-07-20T11:26:51;24.90;2.30
728;DHT22;347;48.780;9.158;2023-07-20T11:29:18;24.80;2.20
728;DHT22;347;48.780;9.158;2023-07-20T11:31:45;24.80;2.20
728;DHT22;347;48.780;9.158;2023-07-20T11:34:19;24.80;2.50
728;DHT22;347;48.780;9.158;2023-07-20T11:36:50;24.70;2.50
728;DHT22;347;48.780;9.158;2023-07-20T11:39:18;24.70;2.40
728;DHT22;347;48.780;9.158;2023-07-20T11:41:53;24.50;2.70
728;DHT22;347;48.780;9.158;2023-07-20T11:44:21;24.50;3.00
728;DHT22;347;48.780;9.158;2023-07-20T11:47:05;24.40;3.30
728;DHT22;347;48.780;9.158;2023-07-20T11:49:38;24.50;2.70
728;DHT22;347;48.780;9.158;2023-07-20T11:52:07;24.40;2.60
728;DHT22;347;48.780;9.158;2023-07-20T11:54:37;24.40;3.20
728;DHT22;347;48.780;9.158;2023-07-20T11:57:03;24.40;3.20
728;DHT22;347;48.780;9.158;2023-07-20T11:59:30;24.50;3.90
728;DHT22;347;48.780;9.158;2023-07-20T12:01:57;24.50;3.00
728;DHT22;347;48.780;9.158;2023-07-20T12:04:23;24.50;1.90
728;DHT22;347;48.780;9.158;2023-07-20T12:06:49;24.50;2.60
728;DHT22;347;48.780;9.158;2023-07-20T12:09:16;24.40;1.20
728;DHT22;347;48.780;9.158;2023-07-20T12:11:43;24.50;1.70
728;DHT22;347;48.780;9.158;2023-07-20T12:14:11;24.40;1.30
728;DHT22;347;48.780;9.158;2023-07-20T12:16:37;24.40;1.00
728;DHT22;347;48.780;9.158;2023-07-20T12:19:10;24.40;1.00
728;DHT22;347;48.780;9.158;2023-07-20T12:21:37;24.50;1.00
728;DHT22;347;48.780;9.158;2023-07-20T12:24:03;24.60;1.60
728;DHT22;347;48.780;9.158;2023-07-20T12:26:30;24.60;1.00
728;DHT22;347;48.780;9.158;2023-07-20T12:28:56;24.60;1.20
728;DHT22;347;48.780;9.158;2023-07-20T12:31:22;24.70;1.60
728;DHT22;347;48.780;9.158;2023-07-20T12:33:50;24.70;1.90
728;DHT22;347;48.780;9.158;2023-07-20T12:36:16;24.70;2.00
728;DHT22;347;48.780;9.158;2023-07-20T12:38:42;24.70;2.10
728;DHT22;347;48.780;9.158;2023-07-20T12:41:10;24.70;1.90
728;DHT22;347;48.780;9.158;2023-07-20T12:43:38;24.70;1.70
728;DHT22;347;48.780;9.158;2023-07-20T12:46:03;24.60;2.30
728;DHT22;347;48.780;9.158;2023-07-20T12:48:29;24.60;2.70
728;DHT22;347;48.780;9.158;2023-07-20T12:50:55;24.50;2.20
728;DHT22;347;48.780;9.158;2023-07-20T12:53:20;24.60;1.80
728;DHT22;347;48.780;9.158;2023-07-20T12:55:46;24.60;1.80
728;DHT22;347;48.780;9.158;2023-07-20T12:58:12;24.60;1.80
728;DHT22;347;48.780;9.158;2023-07-20T13:00:39;24.60;1.00
728;DHT22;347;48.780;9.158;2023-07-20T13:03:04;24.60;1.00
728;DHT22;347;48.780;9.158;2023-07-20T13:05:31;24.60;1.00
728;DHT22;347;48.780;9.158;2023-07-20T13:07:57;24.60;1.00
728;DHT22;347;48.780;9.158;2023-07-20T13:10:24;24.60;1.30
728;DHT22;347;48.780;9.158;2023-07-20T13:12:50;24.60;1.60
728;DHT22;347;48.780;9.158;2023-07-20T13:15:17;24.80;1.00
728;DHT22;347;48.780;9.158;2023-07-20T13:17:42;24.90;1.00
728;DHT22;347;48.780;9.158;2023-07-20T13:20:09;25.30;1.00
728;DHT22;347;48.780;9.158;2023-07-20T13:22:37;25.40;1.00
728;DHT22;347;48.780;9.158;2023-07-20T13:25:02;25.30;1.00
728;DHT22;347;48.780;9.158;2023-07-20T13:27:28;25.30;1.00
728;DHT22;347;48.780;9.158;2023-07-20T13:29:55;25.20;1.00
728;DHT22;347;48.780;9.158;2023-07-20T13:32:22;25.30;1.00
728;DHT22;347;48.780;9.158;2023-07-20T13:34:48;25.30;1.00
728;DHT22;347;48.780;9.158;2023-07-20T13:37:14;25.20;1.00
728;DHT22;347;48.780;9.158;2023-07-20T13:39:41;25.10;1.00
728;DHT22;347;48.780;9.158;2023-07-20T13:42:07;25.20;1.00
728;DHT22;347;48.780;9.158;2023-07-20T13:44:34;25.20;1.00
728;DHT22;347;48.780;9.158;2023-07-20T13:47:01;25.10;1.00
728;DHT22;347;48.780;9.158;2023-07-20T13:49:28;25.00;1.00
728;DHT22;347;48.780;9.158;2023-07-20T13:51:54;24.90;1.00
728;DHT22;347;48.780;9.158;2023-07-20T13:54:19;24.90;1.00
728;DHT22;347;48.780;9.158;2023-07-20T13:56:45;24.90;1.00
728;DHT22;347;48.780;9.158;2023-07-20T13:59:10;24.90;1.00
728;DHT22;347;48.780;9.158;2023-07-20T14:01:36;24.90;1.00
728;DHT22;347;48.780;9.158;2023-07-20T14:04:02;24.80;1.00
728;DHT22;347;48.780;9.158;2023-07-20T14:06:30;24.80;1.00
728;DHT22;347;48.780;9.158;2023-07-20T14:08:56;24.90;1.00
728;DHT22;347;48.780;9.158;2023-07-20T14:11:22;24.90;1.00
728;DHT22;347;48.780;9.158;2023-07-20T14:13:48;24.90;1.00
728;DHT22;347;48.780;9.158;2023-07-20T14:16:13;24.90;1.00
728;DHT22;347;48.780;9.158;2023-07-20T14:18:39;24.90;1.00
728;DHT22;347;48.780;9.158;2023-07-20T14:21:05;24.90;1.00
728;DHT22;347;48.780;9.158;2023-07-20T14:23:32;25.00;1.00
728;DHT22;347;48.780;9.158;2023-07-20T14:25:58;25.00;1.00
728;DHT22;347;48.780;9.158;2023-07-20T14:28:24;25.00;1.00
728;DHT22;347;48.780;9.158;2023-07-20T14:30:50;25.00;1.00
728;DHT22;347;48.780;9.158;2023-07-20T14:33:16;25.00;1.00
728;DHT22;347;48.780;9.158;2023-07-20T14:35:41;25.00;1.00
728;DHT22;347;48.780;9.158;2023-07-20T14:38:07;25.10;1.00
728;DHT22;347;48.780;9.158;2023-07-20T14:40:33;25.10;1.00
728;DHT22;347;48.780;9.158;2023-07-20T14:42:59;25.00;1.00
728;DHT22;347;48.780;9.158;2023-07-20T14:45:27;25.10;1.00
728;DHT22;347;48.780;9.158;2023-07-20T14:47:53;25.10;1.00
728;DHT22;347;48.780;9.158;2023-07-20T14:50:22;25.20;1.00
728;DHT22;347;48.780;9.158;2023-07-20T14:52:48;25.30;1.00
728;DHT22;347;48.780;9.158;2023-07-20T14:55:15;25.20;1.00
728;DHT22;347;48.780;9.158;2023-07-20T14:57:40;25.10;1.00
728;DHT22;347;48.780;9.158;2023-07-20T15:00:06;25.20;1.00
728;DHT22;347;48.780;9.158;2023-07-20T15:02:38;25.10;1.00
728;DHT22;347;48.780;9.158;2023-07-20T15:05:08;25.10;1.00
728;DHT22;347;48.780;9.158;2023-07-20T15:07:34;25.00;1.00
728;DHT22;347;48.780;9.158;2023-07-20T15:10:00;25.00;1.00
728;DHT22;347;48.780;9.158;2023-07-20T15:12:26;25.00;1.00
728;DHT22;347;48.780;9.158;2023-07-20T15:15:07;25.10;1.00
728;DHT22;347;48.780;9.158;2023-07-20T15:17:34;25.10;1.00
728;DHT22;347;48.780;9.158;2023-07-20T15:20:04;25.10;1.00
728;DHT22;347;48.780;9.158;2023-07-20T15:22:34;25.20;1.00
728;DHT22;347;48.780;9.158;2023-07-20T15:25:02;25.10;1.00
728;DHT22;347;48.780;9.158;2023-07-20T15:27:28;25.10;1.00
728;DHT22;347;48.780;9.158;2023-07-20T15:29:54;25.10;1.00
728;DHT22;347;48.780;9.158;2023-07-20T15:32:19;25.10;1.00
728;DHT22;347;48.780;9.158;2023-07-20T15:34:46;25.10;1.00
728;DHT22;347;48.780;9.158;2023-07-20T15:37:12;25.00;1.00
728;DHT22;347;48.780;9.158;2023-07-20T15:39:38;25.00;1.00
728;DHT22;347;48.780;9.158;2023-07-20T15:42:04;24.90;1.00
728;DHT22;347;48.780;9.158;2023-07-20T15:44:30;24.90;1.00
728;DHT22;347;48.780;9.158;2023-07-20T15:46:56;24.80;1.00
728;DHT22;347;48.780;9.158;2023-07-20T15:49:22;24.90;1.00
728;DHT22;347;48.780;9.158;2023-07-20T15:51:48;24.90;1.00
728;DHT22;347;48.780;9.158;2023-07-20T15:54:14;24.90;1.00
728;DHT22;347;48.780;9.158;2023-07-20T15:56:41;25.00;1.00
728;DHT22;347;48.780;9.158;2023-07-20T15:59:09;25.10;1.00
728;DHT22;347;48.780;9.158;2023-07-20T16:01:35;25.10;1.00
728;DHT22;347;48.780;9.158;2023-07-20T16:04:02;25.10;1.00
728;DHT22;347;48.780;9.158;2023-07-20T16:06:28;25.00;1.00
728;DHT22;347;48.780;9.158;2023-07-20T16:08:54;24.90;1.00
728;DHT22;347;48.780;9.158;2023-07-20T16:11:20;24.90;1.00
728;DHT22;347;48.780;9.158;2023-07-20T16:13:52;24.90;1.00
728;DHT22;347;48.780;9.158;2023-07-20T16:16:18;24.90;1.00
728;DHT22;347;48.780;9.158;2023-07-20T16:18:43;24.90;1.00
728;DHT22;347;48.780;9.158;2023-07-20T16:21:10;24.90;1.00
728;DHT22;347;48.780;9.158;2023-07-20T16:23:36;24.90;1.00
728;DHT22;347;48.780;9.158;2023-07-20T16:26:02;24.90;1.00
728;DHT22;347;48.780;9.158;2023-07-20T16:28:28;24.80;1.00
728;DHT22;347;48.780;9.158;2023-07-20T16:30:53;24.80;1.00
728;DHT22;347;48.780;9.158;2023-07-20T16:33:19;24.80;1.00
728;DHT22;347;48.780;9.158;2023-07-20T16:35:45;24.70;1.00
728;DHT22;347;48.780;9.158;2023-07-20T16:38:11;24.70;1.00
728;DHT22;347;48.780;9.158;2023-07-20T16:40:38;24.80;1.00
728;DHT22;347;48.780;9.158;2023-07-20T16:43:04;24.80;1.00
728;DHT22;347;48.780;9.158;2023-07-20T16:45:32;24.80;1.00
728;DHT22;347;48.780;9.158;2023-07-20T16:47:58;24.70;1.00
728;DHT22;347;48.780;9.158;2023-07-20T16:50:24;24.70;1.00
728;DHT22;347;48.780;9.158;2023-07-20T16:52:49;24.60;1.00
728;DHT22;347;48.780;9.158;2023-07-20T16:55:15;24.60;1.00